MET8600 - Boston to McGuire AFB

Boeing 757-200W
773MU - Charter
0 hrs 55 mins
215 nm
Ferry - Daily

Departure

Departing from
Boston (BOS)
Departure gate
Scheduled Departure
GMT 1500
Local 1100
METAR KBOS 272154Z 35005KT 10SM BKN007 OVC013 07/06 A3000 RMK AO2 SLP158 T00670056 $
TAF KBOS 272032Z 2721/2824 02005KT 6SM BR VCSH OVC008 FM272200 VRB04KT 3SM BR OVC005 FM280500 VRB05KT 2SM -DZ BR OVC002 FM281300 07004KT 2SM BR VCSH BKN003 FM281800 09004KT 3SM -RA BR BKN005

Arrival

Arriving at
McGuire AFB (WRI)
Arrival gate
Ramp
Scheduled Arrival
GMT 1555
Local 1155
METAR KWRI 272158Z AUTO 31004KT 10SM CLR 16/12 A2995 RMK AO2 SLP142 T01580118 $
TAF TAF AMD KWRI 272148Z 2721/2824 28006KT 9999 FEW010 SCT100 QNH2991INS BECMG 2802/2803 VRB06KT 4800 BR BKN010 OVC030 QNH2988INS BECMG 2813/2814 20006KT 9999 NSW FEW010 SCT020 BKN050 QNH2985INS BECMG 2818/2819 VRB06KT 9000 -SHRA OVC020 QNH2983INS TX17/2817Z TN08/2811Z

Route Map

Planning Resources

PATSS4 PATSS NELIE J75 GREKI J222 JFK V16 CYN
PATSS3 PATSS NELIE J75 GREKI J222 JFK V16 CYN
SSOXS4 SSOXS BUZRD SEY HTO J121 SARDI V139 DRIFT V312 CYN
PVD JFK KWRI
KBOS BURDY DRIFT CYN KWRI
Route:
OFP Layout:
Units:
Detailed Navlog:
ETOPS Planning:
Plan Stepclimbs:
Runway Analysis:
Include NOTAMS:
FIR NOTAMS:
Flight Maps:

Return Flights

MET8601
Boeing 757-200W
2155 GMT

Popularity

Hub Current Bids PiReps this month Total PiReps
KMCI 0 0 1
KLAX 0 0 2
KBOS 0 0 4